createdAt,value
2017-07-23T00:00:28.613Z,24.70
2017-07-23T00:02:56.546Z,24.70
2017-07-23T00:05:25.319Z,24.69
2017-07-23T00:07:53.254Z,24.69
2017-07-23T00:10:21.178Z,24.69
2017-07-23T00:12:49.143Z,24.68
2017-07-23T00:15:17.077Z,24.68
2017-07-23T00:17:45.000Z,24.68
2017-07-23T00:20:12.944Z,24.68
2017-07-23T00:22:40.871Z,24.68
2017-07-23T00:25:08.826Z,24.68
2017-07-23T00:27:36.757Z,24.68
2017-07-23T00:30:04.701Z,24.67
2017-07-23T00:32:32.643Z,24.67
2017-07-23T00:35:00.567Z,24.67
2017-07-23T00:37:28.523Z,24.66
2017-07-23T00:39:56.446Z,24.65
2017-07-23T00:42:24.374Z,24.65
2017-07-23T00:44:52.534Z,24.65
2017-07-23T00:47:20.473Z,24.65
2017-07-23T00:49:48.431Z,24.64
2017-07-23T00:52:16.371Z,24.64
2017-07-23T00:54:44.294Z,24.63
2017-07-23T00:57:12.227Z,24.62
2017-07-23T00:59:40.430Z,24.62
2017-07-23T01:02:08.383Z,24.61
2017-07-23T01:04:36.311Z,24.61
2017-07-23T01:07:04.252Z,24.60
2017-07-23T01:09:32.172Z,24.60
2017-07-23T01:12:00.089Z,24.59
2017-07-23T01:14:28.028Z,24.58
2017-07-23T01:16:55.959Z,24.58
2017-07-23T01:19:23.881Z,24.57
2017-07-23T01:21:51.833Z,24.57
2017-07-23T01:24:19.772Z,24.57
2017-07-23T01:26:47.718Z,24.57
2017-07-23T01:29:15.667Z,24.56
2017-07-23T01:31:43.597Z,24.56
2017-07-23T01:34:11.529Z,24.56
2017-07-23T01:36:39.455Z,24.56
2017-07-23T01:39:07.678Z,24.56
2017-07-23T01:41:35.608Z,24.55
2017-07-23T01:44:03.551Z,24.56
2017-07-23T01:46:31.500Z,24.56
2017-07-23T01:48:59.437Z,24.56
2017-07-23T01:51:27.395Z,24.55
2017-07-23T01:53:55.322Z,24.55
2017-07-23T01:56:23.273Z,24.55
2017-07-23T01:58:51.228Z,24.55
2017-07-23T02:01:19.273Z,24.55
2017-07-23T02:03:47.709Z,24.54
2017-07-23T02:06:15.701Z,24.54
2017-07-23T02:08:43.631Z,24.54
2017-07-23T02:11:11.559Z,24.54
2017-07-23T02:13:39.494Z,24.53
2017-07-23T02:16:07.423Z,24.53
2017-07-23T02:18:35.345Z,24.53
2017-07-23T02:21:03.283Z,24.52
2017-07-23T02:23:31.213Z,24.52
2017-07-23T02:25:59.146Z,24.52
2017-07-23T02:28:27.062Z,24.51
2017-07-23T02:30:54.995Z,24.51
2017-07-23T02:33:22.925Z,24.51
2017-07-23T02:35:50.875Z,24.51
2017-07-23T02:38:18.864Z,24.49
2017-07-23T02:40:46.788Z,24.49
2017-07-23T02:43:14.710Z,24.48
2017-07-23T02:45:42.639Z,24.48
2017-07-23T02:48:10.553Z,24.47
2017-07-23T02:50:38.505Z,24.47
2017-07-23T02:53:06.435Z,24.46
2017-07-23T02:55:34.362Z,24.46
2017-07-23T02:58:02.286Z,24.44
2017-07-23T03:00:30.211Z,24.45
2017-07-23T03:02:58.151Z,24.44
2017-07-23T03:05:26.091Z,24.43
2017-07-23T03:07:54.111Z,24.43
2017-07-23T03:10:22.038Z,24.42
2017-07-23T03:12:49.965Z,24.41
2017-07-23T03:15:17.916Z,24.41
2017-07-23T03:17:45.841Z,24.40
2017-07-23T03:20:13.767Z,24.40
2017-07-23T03:22:41.674Z,24.38
2017-07-23T03:25:09.612Z,24.38
2017-07-23T03:27:37.570Z,24.38
2017-07-23T03:30:05.492Z,24.37
2017-07-23T03:32:33.423Z,24.37
2017-07-23T03:35:01.346Z,24.36
2017-07-23T03:37:29.266Z,24.36
2017-07-23T03:39:57.222Z,24.37
2017-07-23T03:42:25.142Z,24.35
2017-07-23T03:44:53.803Z,24.36
2017-07-23T03:47:21.743Z,24.35
2017-07-23T03:49:49.659Z,24.36
2017-07-23T03:52:17.619Z,24.35
2017-07-23T03:54:45.546Z,24.35
2017-07-23T03:57:13.470Z,24.35
2017-07-23T03:59:41.409Z,24.34
2017-07-23T04:02:09.339Z,24.35
2017-07-23T04:04:37.282Z,24.34
2017-07-23T04:07:05.211Z,24.33
2017-07-23T04:09:33.166Z,24.33
2017-07-23T04:12:01.107Z,24.33
2017-07-23T04:14:29.021Z,24.33
2017-07-23T04:16:56.967Z,24.32
2017-07-23T04:19:24.884Z,24.32
2017-07-23T04:21:52.818Z,24.31
2017-07-23T04:24:20.746Z,24.30
2017-07-23T04:26:48.700Z,24.31
2017-07-23T04:29:16.645Z,24.30
2017-07-23T04:31:44.582Z,24.30
2017-07-23T04:34:12.540Z,24.30
2017-07-23T04:36:40.474Z,24.30
2017-07-23T04:39:08.417Z,24.29
2017-07-23T04:41:36.357Z,24.29
2017-07-23T04:44:04.284Z,24.28
2017-07-23T04:46:32.207Z,24.28
2017-07-23T04:49:00.137Z,24.27
2017-07-23T04:51:28.070Z,24.26
2017-07-23T04:53:56.019Z,24.26
2017-07-23T04:56:23.946Z,24.26
2017-07-23T04:58:51.877Z,24.25
2017-07-23T05:01:19.803Z,24.24
2017-07-23T05:03:47.741Z,24.25
2017-07-23T05:06:15.686Z,24.25
2017-07-23T05:08:43.619Z,24.24
2017-07-23T05:11:11.558Z,24.22
2017-07-23T05:13:39.501Z,24.23
2017-07-23T05:16:07.437Z,24.23
2017-07-23T05:18:35.382Z,24.22
2017-07-23T05:21:03.305Z,24.23
2017-07-23T05:23:31.219Z,24.21
2017-07-23T05:25:59.174Z,24.21
2017-07-23T05:28:27.093Z,24.20
2017-07-23T05:30:55.005Z,24.20
2017-07-23T05:33:22.928Z,24.20
2017-07-23T05:35:50.862Z,24.20
2017-07-23T05:38:18.812Z,24.19
2017-07-23T05:40:46.745Z,24.19
2017-07-23T05:43:14.685Z,24.19
2017-07-23T05:45:42.615Z,24.19
2017-07-23T05:48:10.539Z,24.20
2017-07-23T05:50:38.488Z,24.20
2017-07-23T05:53:06.414Z,24.20
2017-07-23T05:55:34.346Z,24.19
2017-07-23T05:58:02.273Z,24.19
2017-07-23T06:00:30.219Z,24.19
2017-07-23T06:02:58.175Z,24.20
2017-07-23T06:05:26.099Z,24.20
2017-07-23T06:07:54.046Z,24.20
2017-07-23T06:10:21.981Z,24.20
2017-07-23T06:12:49.907Z,24.21
2017-07-23T06:15:17.845Z,24.21
2017-07-23T06:17:45.798Z,24.10
2017-07-23T06:20:13.734Z,24.11
2017-07-23T06:22:41.670Z,24.08
2017-07-23T06:25:09.606Z,24.03
2017-07-23T06:27:38.342Z,24.03
2017-07-23T06:41:06.700Z,24.30
2017-07-23T06:43:33.902Z,24.20
2017-07-23T06:46:00.388Z,24.17
2017-07-23T06:48:26.550Z,24.08
2017-07-23T06:50:52.722Z,24.04
2017-07-23T06:53:18.891Z,24.01
2017-07-23T06:55:45.812Z,23.98
2017-07-23T06:58:11.991Z,24.07
2017-07-23T07:00:38.193Z,24.08
2017-07-23T07:03:04.366Z,24.10
2017-07-23T07:05:30.539Z,24.09
2017-07-23T07:07:56.709Z,24.07
2017-07-23T07:10:23.652Z,24.10
2017-07-23T07:12:50.224Z,24.11
2017-07-23T07:15:16.410Z,24.10
2017-07-23T07:17:42.588Z,24.08
2017-07-23T07:20:08.760Z,24.05
2017-07-23T07:22:34.930Z,24.02
2017-07-23T07:25:01.836Z,24.02
2017-07-23T07:27:28.011Z,24.01
2017-07-23T07:29:55.035Z,23.94
2017-07-23T07:32:21.212Z,23.96
2017-07-23T07:34:47.392Z,23.90
2017-07-23T07:37:13.584Z,23.88
2017-07-23T07:39:39.759Z,23.90
2017-07-23T07:42:06.002Z,23.87
2017-07-23T07:44:32.200Z,23.93
2017-07-23T07:46:58.382Z,23.94
2017-07-23T07:49:24.550Z,23.95
2017-07-23T07:51:50.713Z,23.92
2017-07-23T07:54:16.904Z,23.88
2017-07-23T07:56:43.823Z,23.87
2017-07-23T07:59:10.013Z,23.87
2017-07-23T08:01:36.193Z,23.85
2017-07-23T08:04:03.139Z,23.83
2017-07-23T08:06:29.964Z,23.87
2017-07-23T08:08:57.056Z,23.81
2017-07-23T08:11:23.478Z,23.88
2017-07-23T08:13:49.824Z,23.89
2017-07-23T08:16:15.994Z,23.91
2017-07-23T08:18:42.523Z,23.94
2017-07-23T08:21:08.694Z,23.92
2017-07-23T08:23:34.866Z,23.96
2017-07-23T08:26:01.778Z,24.04
2017-07-23T08:28:27.946Z,24.00
2017-07-23T08:30:54.131Z,24.04
2017-07-23T08:33:20.292Z,24.07
2017-07-23T08:35:46.452Z,24.10
2017-07-23T08:38:12.615Z,24.15
2017-07-23T08:40:38.792Z,24.13
2017-07-23T08:43:04.974Z,24.06
2017-07-23T08:45:31.161Z,24.07
2017-07-23T08:47:57.327Z,24.09
2017-07-23T08:50:24.252Z,24.10
2017-07-23T08:52:50.452Z,24.22
2017-07-23T08:55:16.655Z,24.26
2017-07-23T08:57:42.820Z,24.26
2017-07-23T09:00:08.987Z,24.30
2017-07-23T09:02:35.212Z,24.25
2017-07-23T09:05:01.407Z,24.24
2017-07-23T09:07:27.594Z,24.27
2017-07-23T09:09:54.512Z,24.28
2017-07-23T09:12:20.675Z,24.25
2017-07-23T09:14:47.594Z,24.28
2017-07-23T09:17:13.775Z,24.29
2017-07-23T09:19:39.982Z,24.29
2017-07-23T09:22:06.155Z,24.25
2017-07-23T09:24:32.326Z,24.21
2017-07-23T09:26:58.513Z,24.20
2017-07-23T09:29:24.688Z,24.17
2017-07-23T09:31:50.900Z,24.20
2017-07-23T09:34:17.069Z,24.16
2017-07-23T09:36:43.239Z,24.15
2017-07-23T09:39:09.409Z,24.17
2017-07-23T09:41:35.588Z,24.17
2017-07-23T09:44:02.518Z,24.23
2017-07-23T09:46:28.695Z,24.25
2017-07-23T09:48:54.858Z,24.25
2017-07-23T09:51:21.037Z,24.25
2017-07-23T09:53:47.976Z,24.25
2017-07-23T09:56:14.179Z,24.22
2017-07-23T09:58:40.360Z,24.19
2017-07-23T10:01:07.575Z,24.21
2017-07-23T10:03:33.764Z,24.19
2017-07-23T10:05:59.963Z,24.21
2017-07-23T10:08:26.164Z,24.20
2017-07-23T10:10:52.343Z,24.19
2017-07-23T10:13:19.266Z,24.20
2017-07-23T10:15:45.438Z,24.21
2017-07-23T10:18:11.622Z,24.21
2017-07-23T10:20:37.807Z,24.24
2017-07-23T10:23:04.025Z,24.25
2017-07-23T10:25:30.971Z,24.27
2017-07-23T10:27:57.898Z,24.27
2017-07-23T10:30:24.095Z,24.26
2017-07-23T10:32:50.262Z,24.28
2017-07-23T10:35:16.431Z,24.28
2017-07-23T10:37:43.369Z,24.29
2017-07-23T10:40:09.552Z,24.32
2017-07-23T10:42:35.728Z,24.32
2017-07-23T10:45:02.649Z,24.36
2017-07-23T10:47:28.811Z,24.35
2017-07-23T10:49:55.758Z,24.38
2017-07-23T10:52:22.690Z,24.35
2017-07-23T10:54:48.863Z,24.36
2017-07-23T10:57:15.043Z,24.39
2017-07-23T10:59:41.218Z,24.42
2017-07-23T11:02:08.176Z,24.40
2017-07-23T11:04:35.107Z,24.43
2017-07-23T11:07:02.059Z,24.45
2017-07-23T11:09:28.986Z,24.45
2017-07-23T11:11:55.160Z,24.47
2017-07-23T11:14:21.351Z,24.48
2017-07-23T11:16:47.540Z,24.48
2017-07-23T11:19:13.721Z,24.49
2017-07-23T11:21:40.647Z,24.52
2017-07-23T11:24:07.815Z,24.55
2017-07-23T11:26:33.995Z,24.50
2017-07-23T11:29:00.925Z,24.50
2017-07-23T11:31:27.115Z,24.54
2017-07-23T11:34:04.569Z,24.56
2017-07-23T11:36:32.504Z,24.54
2017-07-23T11:39:11.131Z,24.57
2017-07-23T11:41:38.027Z,24.55
2017-07-23T11:44:04.219Z,24.60
2017-07-23T11:46:31.172Z,24.61
2017-07-23T11:48:58.235Z,24.64
2017-07-23T11:51:25.192Z,24.63
2017-07-23T11:53:52.203Z,24.66
2017-07-23T11:56:18.457Z,24.74
2017-07-23T11:58:45.384Z,24.76
2017-07-23T12:01:11.805Z,24.77
2017-07-23T12:03:38.250Z,24.81
2017-07-23T12:06:04.444Z,24.85
2017-07-23T12:08:30.635Z,24.85
2017-07-23T12:10:56.818Z,24.85
2017-07-23T12:13:22.996Z,24.88
2017-07-23T12:15:49.279Z,24.85
2017-07-23T12:18:15.961Z,24.82
2017-07-23T12:20:42.512Z,24.81
2017-07-23T12:23:09.076Z,24.81
2017-07-23T12:25:35.567Z,24.80
2017-07-23T12:28:01.919Z,24.80
2017-07-23T12:30:28.118Z,24.77
2017-07-23T12:32:54.301Z,24.77
2017-07-23T12:35:20.463Z,24.77
2017-07-23T12:37:47.402Z,24.72
2017-07-23T12:40:14.124Z,24.70
2017-07-23T12:42:42.626Z,24.70
2017-07-23T12:45:08.879Z,24.70
2017-07-23T12:47:35.808Z,24.74
2017-07-23T12:50:01.999Z,24.71
2017-07-23T12:52:28.171Z,24.70
2017-07-23T12:54:54.340Z,24.69
2017-07-23T12:57:21.279Z,24.69
2017-07-23T12:59:49.544Z,24.69
2017-07-23T13:02:15.743Z,24.64
2017-07-23T13:04:41.920Z,24.62
2017-07-23T13:07:08.850Z,24.57
2017-07-23T13:09:35.645Z,24.54
2017-07-23T13:12:02.056Z,24.54
2017-07-23T13:14:29.029Z,24.63
2017-07-23T13:16:55.274Z,24.66
2017-07-23T13:19:21.447Z,24.62
2017-07-23T13:21:47.642Z,24.63
2017-07-23T13:24:13.815Z,24.62
2017-07-23T13:26:40.155Z,24.66
2017-07-23T13:29:06.387Z,24.73
2017-07-23T13:31:33.357Z,24.72
2017-07-23T13:34:00.281Z,24.67
2017-07-23T13:36:26.774Z,24.65
2017-07-23T13:38:52.980Z,24.64
2017-07-23T13:41:19.191Z,24.71
2017-07-23T13:43:45.363Z,24.73
2017-07-23T13:46:12.280Z,24.79
2017-07-23T13:48:39.228Z,24.87
2017-07-23T13:51:05.451Z,24.86
2017-07-23T13:53:31.736Z,24.91
2017-07-23T13:55:58.340Z,24.94
2017-07-23T13:58:24.612Z,24.98
2017-07-23T14:00:50.820Z,24.98
2017-07-23T14:03:17.020Z,24.96
2017-07-23T14:05:43.203Z,24.98
2017-07-23T14:08:10.286Z,25.01
2017-07-23T14:10:36.608Z,25.00
2017-07-23T14:13:02.956Z,24.99
2017-07-23T14:15:29.146Z,24.95
2017-07-23T14:17:56.782Z,24.71
2017-07-23T14:20:22.976Z,24.51
2017-07-23T14:22:49.975Z,24.40
2017-07-23T14:25:16.245Z,24.32
2017-07-23T14:27:42.656Z,24.30
2017-07-23T14:30:08.978Z,24.28
2017-07-23T14:32:35.770Z,24.10
2017-07-23T14:35:02.077Z,24.09
2017-07-23T14:37:28.262Z,24.03
2017-07-23T14:39:54.472Z,23.95
2017-07-23T14:42:21.399Z,23.93
2017-07-23T14:44:48.460Z,24.01
2017-07-23T14:47:15.396Z,23.95
2017-07-23T14:49:41.581Z,23.88
2017-07-23T14:52:07.791Z,23.94
2017-07-23T14:54:34.716Z,23.88
2017-07-23T14:57:00.907Z,23.94
2017-07-23T14:59:27.074Z,24.00
2017-07-23T15:01:53.247Z,23.96
2017-07-23T15:04:19.452Z,23.97
2017-07-23T15:06:45.630Z,23.98
2017-07-23T15:09:11.816Z,23.90
2017-07-23T15:11:38.746Z,23.88
2017-07-23T15:14:05.438Z,23.86
2017-07-23T15:16:31.663Z,24.01
2017-07-23T15:18:57.863Z,24.10
2017-07-23T15:21:24.164Z,24.20
2017-07-23T15:23:50.344Z,24.27
2017-07-23T15:26:16.523Z,24.35
2017-07-23T15:28:42.727Z,24.39
2017-07-23T15:31:09.675Z,24.40
2017-07-23T15:33:36.611Z,24.39
2017-07-23T15:36:02.795Z,24.43
2017-07-23T15:38:28.981Z,24.46
2017-07-23T15:40:55.216Z,24.49
2017-07-23T15:43:22.138Z,24.53
2017-07-23T15:45:48.306Z,24.53
2017-07-23T15:48:15.216Z,24.47
2017-07-23T15:50:41.385Z,24.44
2017-07-23T15:53:08.317Z,24.44
2017-07-23T15:55:34.506Z,24.42
2017-07-23T15:58:00.686Z,24.40
2017-07-23T16:00:26.859Z,24.36
2017-07-23T16:02:53.038Z,24.38
2017-07-23T16:05:19.218Z,24.44
2017-07-23T16:07:45.459Z,24.48
2017-07-23T16:10:11.631Z,24.49
2017-07-23T16:12:37.832Z,24.56
2017-07-23T16:15:04.039Z,24.60
2017-07-23T16:17:30.968Z,24.62
2017-07-23T16:19:57.895Z,24.63
2017-07-23T16:22:24.102Z,24.63
2017-07-23T16:24:50.319Z,24.66
2017-07-23T16:27:16.501Z,24.67
2017-07-23T16:29:42.683Z,24.66
2017-07-23T16:32:08.879Z,24.67
2017-07-23T16:34:35.075Z,24.67
2017-07-23T16:37:01.267Z,24.69
2017-07-23T16:39:28.215Z,24.73
2017-07-23T16:41:55.204Z,24.81
2017-07-23T16:44:21.379Z,24.77
2017-07-23T16:46:47.578Z,24.80
2017-07-23T16:49:13.742Z,24.83
2017-07-23T16:51:39.918Z,24.86
2017-07-23T16:54:06.101Z,24.82
2017-07-23T16:56:32.290Z,24.80
2017-07-23T16:58:58.459Z,24.80
2017-07-23T17:01:24.654Z,24.73
2017-07-23T17:03:50.839Z,24.75
2017-07-23T17:06:17.020Z,24.70
2017-07-23T17:08:49.213Z,24.61
2017-07-23T17:11:15.388Z,24.61
2017-07-23T17:13:42.309Z,24.56
2017-07-23T17:16:08.533Z,24.49
2017-07-23T17:18:34.730Z,24.46
2017-07-23T17:21:00.924Z,24.41
2017-07-23T17:23:27.091Z,24.51
2017-07-23T17:25:54.203Z,24.56
2017-07-23T17:28:20.426Z,24.55
2017-07-23T17:30:46.595Z,24.57
2017-07-23T17:33:13.556Z,24.51
2017-07-23T17:35:40.480Z,24.47
2017-07-23T17:38:07.423Z,24.41
2017-07-23T17:40:33.636Z,24.40
2017-07-23T17:42:59.829Z,24.36
2017-07-23T17:45:26.803Z,24.34
2017-07-23T17:47:52.991Z,24.28
2017-07-23T17:50:19.919Z,24.26
2017-07-23T17:52:46.902Z,24.26
2017-07-23T17:55:13.832Z,24.25
2017-07-23T18:00:37.186Z,24.18
2017-07-23T18:03:03.364Z,24.20
2017-07-23T18:05:30.728Z,24.18
2017-07-23T18:07:56.924Z,24.21
2017-07-23T18:10:23.164Z,24.21
2017-07-23T18:12:49.348Z,24.24
2017-07-23T18:15:15.554Z,24.24
2017-07-23T18:17:43.280Z,24.26
2017-07-23T18:20:09.554Z,24.25
2017-07-23T18:25:08.527Z,24.24
2017-07-23T18:27:34.702Z,24.23
2017-07-23T18:30:01.760Z,24.22
2017-07-23T18:32:28.755Z,24.23
2017-07-23T18:34:55.433Z,24.19
2017-07-23T18:37:21.634Z,24.21
2017-07-23T18:39:47.808Z,24.24
2017-07-23T18:42:14.777Z,24.25
2017-07-23T18:44:41.755Z,24.20
2017-07-23T18:47:07.968Z,24.21
2017-07-23T18:49:34.142Z,24.25
2017-07-23T18:52:00.339Z,24.29
2017-07-23T18:54:26.575Z,24.24
2017-07-23T18:56:52.792Z,23.99
2017-07-23T18:59:18.987Z,23.64
2017-07-23T19:01:45.175Z,23.70
2017-07-23T19:04:11.354Z,23.80
2017-07-23T19:06:37.574Z,23.85
2017-07-23T19:09:03.819Z,23.88
2017-07-23T19:11:30.011Z,23.91
2017-07-23T19:13:56.178Z,23.91
2017-07-23T19:16:22.378Z,23.93
2017-07-23T19:18:48.600Z,23.93
2017-07-23T19:21:14.801Z,23.97
2017-07-23T19:23:40.985Z,23.88
2017-07-23T19:26:07.175Z,23.70
2017-07-23T19:28:34.094Z,23.51
2017-07-23T19:31:00.292Z,23.41
2017-07-23T19:33:26.823Z,23.22
2017-07-23T19:35:53.048Z,23.26
2017-07-23T19:38:19.975Z,23.38
2017-07-23T19:40:46.163Z,23.43
2017-07-23T19:43:12.375Z,23.49
2017-07-23T19:45:38.555Z,23.53
2017-07-23T19:48:04.750Z,23.56
2017-07-23T19:50:30.947Z,23.58
2017-07-23T19:52:57.913Z,23.64
2017-07-23T19:55:24.858Z,23.60
2017-07-23T19:57:51.841Z,23.66
2017-07-23T20:00:18.048Z,23.67
2017-07-23T20:02:44.979Z,23.69
2017-07-23T20:05:11.898Z,23.72
2017-07-23T20:07:38.140Z,23.72
2017-07-23T20:10:04.327Z,23.71
2017-07-23T20:12:30.541Z,23.74
2017-07-23T20:14:57.648Z,23.71
2017-07-23T20:17:24.701Z,23.72
2017-07-23T20:19:50.934Z,23.69
2017-07-23T20:22:17.110Z,23.69
2017-07-23T20:24:44.027Z,23.70
2017-07-23T20:27:10.210Z,23.72
2017-07-23T20:29:36.684Z,23.71
2017-07-23T20:32:02.919Z,23.67
2017-07-23T20:34:29.101Z,23.68
2017-07-23T20:36:56.032Z,23.67
2017-07-23T20:39:22.214Z,23.70
2017-07-23T20:41:48.392Z,23.73
2017-07-23T20:44:14.595Z,23.70
2017-07-23T20:46:40.776Z,23.71
2017-07-23T20:49:07.705Z,23.68
2017-07-23T20:51:33.878Z,23.67
2017-07-23T20:54:00.075Z,23.66
2017-07-23T20:56:27.543Z,23.65
2017-07-23T20:58:53.710Z,23.64
2017-07-23T21:01:19.895Z,23.64
2017-07-23T21:03:46.107Z,23.61
2017-07-23T21:06:12.279Z,23.63
2017-07-23T21:08:38.466Z,23.62
2017-07-23T21:11:04.637Z,23.61
2017-07-23T21:13:30.823Z,23.62
2017-07-23T21:15:57.008Z,23.60
2017-07-23T21:18:23.219Z,23.59
2017-07-23T21:20:49.395Z,23.61
2017-07-23T21:23:16.519Z,23.62
2017-07-23T21:25:42.720Z,23.63
2017-07-23T21:28:08.888Z,23.59
2017-07-23T21:30:35.062Z,23.58
2017-07-23T21:33:01.228Z,23.57
2017-07-23T21:35:27.419Z,23.57
2017-07-23T21:37:53.598Z,23.59
2017-07-23T21:40:19.754Z,23.56
2017-07-23T21:42:45.928Z,23.55
2017-07-23T21:45:12.283Z,23.55
2017-07-23T21:47:38.463Z,23.57
2017-07-23T21:50:04.662Z,23.57
2017-07-23T21:52:30.839Z,23.54
2017-07-23T21:54:57.747Z,23.57
2017-07-23T21:57:23.942Z,23.60
2017-07-23T21:59:50.119Z,23.58
2017-07-23T22:02:16.326Z,23.56
2017-07-23T22:04:42.507Z,23.52
2017-07-23T22:07:09.431Z,23.54
2017-07-23T22:09:35.610Z,23.57
2017-07-23T22:12:02.550Z,23.57
2017-07-23T22:14:28.727Z,23.59
2017-07-23T22:16:54.898Z,23.59
2017-07-23T22:19:21.084Z,23.60
2017-07-23T22:21:47.267Z,23.62
2017-07-23T22:24:13.434Z,23.62
2017-07-23T22:26:39.614Z,23.62
2017-07-23T22:29:05.777Z,23.63
2017-07-23T22:31:32.698Z,23.63
2017-07-23T22:33:58.874Z,23.63
2017-07-23T22:36:25.035Z,23.63
2017-07-23T22:38:51.233Z,23.64
2017-07-23T22:41:18.154Z,23.64
2017-07-23T22:43:44.324Z,23.65
2017-07-23T22:46:10.486Z,23.64
2017-07-23T22:48:36.647Z,23.64
2017-07-23T22:51:02.857Z,23.64
2017-07-23T22:53:29.043Z,23.63
2017-07-23T22:55:55.955Z,23.63
2017-07-23T22:58:22.138Z,23.63
2017-07-23T23:00:48.322Z,23.64
2017-07-23T23:03:14.512Z,23.63
2017-07-23T23:05:40.696Z,23.64
2017-07-23T23:08:06.863Z,23.63
2017-07-23T23:10:33.029Z,23.62
2017-07-23T23:12:59.293Z,23.62
2017-07-23T23:15:25.477Z,23.63
2017-07-23T23:17:51.647Z,23.63
2017-07-23T23:20:17.808Z,23.63
2017-07-23T23:22:44.735Z,23.63
2017-07-23T23:25:10.909Z,23.63
2017-07-23T23:27:37.825Z,23.63
2017-07-23T23:30:03.987Z,23.63
2017-07-23T23:32:30.902Z,23.62
2017-07-23T23:34:57.076Z,23.62
2017-07-23T23:37:23.271Z,23.62
2017-07-23T23:39:49.453Z,23.62
2017-07-23T23:42:15.616Z,23.62
2017-07-23T23:44:41.807Z,23.62
2017-07-23T23:47:08.711Z,23.61
2017-07-23T23:49:34.878Z,23.60
2017-07-23T23:52:01.828Z,23.61
2017-07-23T23:54:28.730Z,23.61
2017-07-23T23:56:55.020Z,23.60
2017-07-23T23:59:21.932Z,23.60
